createdAt,value
2023-01-23T00:01:09.993Z,21.7
2023-01-23T00:06:18.234Z,21.6
2023-01-23T00:11:40.728Z,21.7
2023-01-23T00:17:04.170Z,21.6
2023-01-23T00:22:30.784Z,21.6
2023-01-23T00:27:52.752Z,21.7
2023-01-23T00:33:16.610Z,21.6
2023-01-23T00:38:40.236Z,21.6
2023-01-23T00:43:46.654Z,21.6
2023-01-23T00:49:15.794Z,21.6
2023-01-23T00:54:23.499Z,21.7
2023-01-23T00:59:45.520Z,21.6
2023-01-23T01:05:10.442Z,21.6
2023-01-23T01:09:47.390Z,21.6
2023-01-23T01:15:09.312Z,21.6
2023-01-23T01:20:32.859Z,21.6
2023-01-23T01:25:56.108Z,21.7
2023-01-23T01:31:19.066Z,21.6
2023-01-23T01:36:42.826Z,21.7
2023-01-23T01:42:05.960Z,21.7
2023-01-23T01:47:28.949Z,21.7
2023-01-23T01:52:52.299Z,21.7
2023-01-23T01:57:59.295Z,21.7
2023-01-23T02:02:50.926Z,21.7
2023-01-23T02:07:58.951Z,21.7
2023-01-23T02:13:22.180Z,21.7
2023-01-23T02:18:44.919Z,21.7
2023-01-23T02:23:55.053Z,21.7
2023-01-23T02:29:18.352Z,21.7
2023-01-23T02:34:41.651Z,21.7
2023-01-23T02:40:05.077Z,21.7
2023-01-23T02:45:13.428Z,21.7
2023-01-23T02:50:37.001Z,21.8
2023-01-23T02:55:59.441Z,21.8
2023-01-23T03:01:23.319Z,21.8
2023-01-23T03:06:46.185Z,21.8
2023-01-23T03:12:09.158Z,21.8
2023-01-23T03:17:16.643Z,21.8
2023-01-23T03:22:37.718Z,21.8
2023-01-23T03:27:45.705Z,21.8
2023-01-23T03:33:09.489Z,21.8
2023-01-23T03:38:31.951Z,21.8
2023-01-23T03:43:24.416Z,21.8
2023-01-23T03:48:32.101Z,21.8
2023-01-23T03:53:39.213Z,21.8
2023-01-23T03:58:46.597Z,21.8
2023-01-23T04:03:39.720Z,21.8
2023-01-23T04:08:46.482Z,21.8
2023-01-23T04:14:01.091Z,21.8
2023-01-23T04:19:08.982Z,21.8
2023-01-23T04:24:31.073Z,21.9
2023-01-23T04:29:53.815Z,21.8
2023-01-23T04:35:18.451Z,21.8
2023-01-23T04:40:41.403Z,21.9
2023-01-23T04:46:05.677Z,21.9
2023-01-23T04:51:13.984Z,21.9
2023-01-23T04:56:20.419Z,21.9
2023-01-23T05:01:44.368Z,21.9
2023-01-23T05:07:08.348Z,21.9
2023-01-23T05:12:33.629Z,21.9
2023-01-23T05:17:41.662Z,21.9
2023-01-23T05:22:49.924Z,21.9
2023-01-23T05:27:56.621Z,21.9
2023-01-23T05:33:20.160Z,21.9
2023-01-23T05:38:31.295Z,21.9
2023-01-23T05:43:55.109Z,21.9
2023-01-23T05:48:47.577Z,21.9
2023-01-23T05:54:11.640Z,21.9
2023-01-23T05:59:21.559Z,22
2023-01-23T06:04:28.990Z,21.9
2023-01-23T06:09:37.407Z,22
2023-01-23T06:14:44.693Z,21.9
2023-01-23T06:19:54.965Z,22
2023-01-23T06:25:19.194Z,22
2023-01-23T06:30:42.093Z,22
2023-01-23T06:36:09.284Z,22
2023-01-23T06:41:19.815Z,22
2023-01-23T06:46:43.380Z,22
2023-01-23T06:52:06.630Z,22
2023-01-23T06:57:30.569Z,22
2023-01-23T07:02:53.978Z,22
2023-01-23T07:08:16.618Z,21.7
2023-01-23T07:13:40.463Z,20.6
2023-01-23T07:19:05.846Z,19.9
2023-01-23T07:24:12.682Z,19.5
2023-01-23T07:29:36.654Z,19.3
2023-01-23T07:35:01.392Z,19.1
2023-01-23T07:40:24.469Z,18.9
2023-01-23T07:45:48.116Z,18.3
2023-01-23T07:51:12.082Z,17.8
2023-01-23T07:56:37.508Z,17.6
2023-01-23T08:02:06.711Z,17.4
2023-01-23T08:07:13.832Z,17.3
2023-01-23T08:12:46.087Z,17.3
2023-01-23T08:17:54.466Z,17.2
2023-01-23T08:23:17.025Z,17.1
2023-01-23T08:28:24.082Z,17.1
2023-01-23T08:38:56.522Z,16.9
2023-01-23T08:44:20.219Z,16.9
2023-01-23T08:49:44.606Z,16.9
2023-01-23T08:55:08.171Z,16.9
2023-01-23T09:00:32.831Z,16.9
2023-01-23T09:05:57.183Z,16.9
2023-01-23T09:11:05.745Z,16.9
2023-01-23T09:16:13.058Z,16.9
2023-01-23T09:21:37.535Z,16.8
2023-01-23T09:27:01.038Z,16.8
2023-01-23T09:32:24.830Z,16.8
2023-01-23T09:38:04.791Z,16.8
2023-01-23T09:43:14.382Z,16.8
2023-01-23T09:48:37.922Z,16.8
2023-01-23T09:53:46.530Z,16.8
2023-01-23T09:58:54.163Z,16.8
2023-01-23T10:04:33.474Z,16.8
2023-01-23T10:09:59.660Z,16.8
2023-01-23T10:15:26.143Z,16.8
2023-01-23T10:21:08.632Z,16.8
2023-01-23T10:26:41.896Z,17.1
2023-01-23T10:32:04.872Z,17.6
2023-01-23T10:37:43.320Z,18.1
2023-01-23T10:43:09.467Z,18.6
2023-01-23T10:48:49.347Z,19.3
2023-01-23T10:54:30.557Z,20.1
2023-01-23T10:59:57.382Z,20.9
2023-01-23T11:05:12.340Z,21.8
2023-01-23T11:10:42.842Z,22.6
2023-01-23T11:16:09.369Z,23.5
2023-01-23T11:21:32.144Z,24.4
2023-01-23T11:27:09.163Z,25.3
2023-01-23T11:32:36.925Z,26.1
2023-01-23T11:37:59.577Z,26.9
2023-01-23T11:43:29.934Z,27.9
2023-01-23T11:49:03.445Z,28.8
2023-01-23T11:54:31.608Z,29.5
2023-01-23T11:59:45.792Z,30.3
2023-01-23T12:05:29.961Z,31.1
2023-01-23T12:11:08.369Z,31.9
2023-01-23T12:16:32.351Z,32.7
2023-01-23T12:21:40.794Z,33.3
2023-01-23T12:27:05.322Z,33.9
2023-01-23T12:32:29.244Z,34.7
2023-01-23T12:38:20.569Z,35.2
2023-01-23T12:43:44.633Z,35.4
2023-01-23T12:49:08.074Z,35.6
2023-01-23T12:54:33.272Z,35.6
2023-01-23T13:00:21.595Z,35.7
2023-01-23T13:05:58.698Z,35.7
2023-01-23T13:11:43.189Z,35.7
2023-01-23T13:17:37.183Z,35.7
2023-01-23T13:23:05.880Z,35.7
2023-01-23T13:28:43.875Z,35.7
2023-01-23T13:34:15.548Z,35.7
2023-01-23T13:39:41.662Z,35.7
2023-01-23T13:45:22.590Z,35.7
2023-01-23T13:50:30.794Z,35.6
2023-01-23T13:55:54.215Z,35.6
2023-01-23T14:01:18.172Z,35.6
2023-01-23T14:06:40.515Z,35.6
2023-01-23T14:12:03.872Z,35.6
2023-01-23T14:17:28.310Z,35.6
2023-01-23T14:23:04.121Z,35.5
2023-01-23T14:28:44.100Z,35.5
2023-01-23T14:34:17.876Z,35.5
2023-01-23T14:39:25.819Z,35.4
2023-01-23T14:45:33.173Z,35.4
2023-01-23T14:51:12.655Z,35.4
2023-01-23T14:56:55.598Z,35.4
2023-01-23T15:02:29.720Z,35.3
2023-01-23T15:07:54.467Z,35.3
2023-01-23T15:13:17.583Z,35.3
2023-01-23T15:18:41.292Z,35.3
2023-01-23T15:24:05.848Z,35.2
2023-01-23T15:29:40.980Z,35.2
2023-01-23T15:35:05.966Z,35.1
2023-01-23T15:40:30.783Z,31.3
2023-01-23T15:46:08.321Z,25.9
2023-01-23T15:51:39.438Z,23.5
2023-01-23T15:57:16.757Z,22.3
2023-01-23T16:02:56.053Z,21.4
2023-01-23T16:08:20.144Z,20.8
2023-01-23T16:13:52.220Z,20.4
2023-01-23T16:19:12.425Z,20.1
2023-01-23T16:25:10.240Z,19.8
2023-01-23T16:30:51.404Z,19.6
2023-01-23T16:36:15.367Z,19.4
2023-01-23T16:41:39.071Z,19.3
2023-01-23T16:47:03.624Z,19.1
2023-01-23T16:52:43.633Z,18.9
2023-01-23T16:58:20.053Z,18.9
2023-01-23T17:03:59.269Z,18.8
2023-01-23T17:09:22.606Z,18.8
2023-01-23T17:19:20.875Z,18.6
2023-01-23T17:24:44.578Z,18.6
2023-01-23T17:30:30.403Z,18.5
2023-01-23T17:36:01.208Z,18.5
2023-01-23T17:41:24.597Z,18.4
2023-01-23T17:46:49.854Z,18.4
2023-01-23T17:51:58.483Z,18.4
2023-01-23T17:57:23.887Z,18.4
2023-01-23T18:02:49.633Z,18.3
2023-01-23T18:08:09.986Z,18.3
2023-01-23T18:13:35.785Z,18.4
2023-01-23T18:19:07.536Z,18.4
2023-01-23T18:24:21.453Z,18.4
2023-01-23T18:29:17.265Z,18.4
2023-01-23T18:34:17.572Z,18.4
2023-01-23T18:39:36.421Z,18.3
2023-01-23T18:44:53.383Z,18.3
2023-01-23T18:50:58.683Z,18.3
2023-01-23T18:56:35.044Z,18.3
2023-01-23T19:02:27.615Z,18.3
2023-01-23T19:08:07.334Z,18.3
2023-01-23T19:13:39.429Z,18.3
2023-01-23T19:19:35.115Z,18.3
2023-01-23T19:25:11.642Z,18.2
2023-01-23T19:31:03.822Z,18.2
2023-01-23T19:36:41.469Z,18.2
2023-01-23T19:42:16.117Z,18.2
2023-01-23T19:48:19.738Z,18.2
2023-01-23T19:53:58.154Z,18.2
2023-01-23T19:58:49.426Z,18.1
2023-01-23T20:04:08.619Z,18.1
2023-01-23T20:09:21.883Z,18.1
2023-01-23T20:14:52.099Z,18.1
2023-01-23T20:20:21.639Z,18.4
2023-01-23T20:25:52.446Z,19.3
2023-01-23T20:31:23.740Z,20.4
2023-01-23T20:36:36.224Z,21.7
2023-01-23T20:42:01.697Z,23.1
2023-01-23T20:47:27.324Z,24.4
2023-01-23T20:52:52.286Z,25.9
2023-01-23T20:58:20.218Z,27.1
2023-01-23T21:03:30.584Z,28.3
2023-01-23T21:08:09.804Z,29.3
2023-01-23T21:13:18.129Z,29.9
2023-01-23T21:18:42.597Z,30.4
2023-01-23T21:24:08.194Z,30.7
2023-01-23T21:29:30.867Z,30.9
2023-01-23T21:34:53.641Z,31
2023-01-23T21:40:02.532Z,31.1
2023-01-23T21:45:25.289Z,31.1
2023-01-23T21:50:47.664Z,31.2
2023-01-23T21:55:40.940Z,31.2
2023-01-23T22:01:03.630Z,31.2
2023-01-23T22:06:27.327Z,31.2
2023-01-23T22:11:51.710Z,31.2
2023-01-23T22:17:35.992Z,31.2
2023-01-23T22:22:59.379Z,31.1
2023-01-23T22:28:23.590Z,31.1
2023-01-23T22:33:56.859Z,31.1
2023-01-23T22:39:19.776Z,31.1
2023-01-23T22:44:44.278Z,31.1
2023-01-23T22:50:07.849Z,31.1
2023-01-23T22:55:33.196Z,31.1
2023-01-23T23:00:41.890Z,31
2023-01-23T23:06:05.628Z,30.9
2023-01-23T23:10:57.089Z,31
2023-01-23T23:15:49.800Z,30.9
2023-01-23T23:20:57.457Z,30.9
2023-01-23T23:26:20.300Z,30.9
2023-01-23T23:31:13.089Z,30.9
2023-01-23T23:36:36.767Z,30.8
2023-01-23T23:41:59.567Z,30.8
2023-01-23T23:47:23.454Z,30.8
2023-01-23T23:52:46.404Z,30.8
2023-01-23T23:57:53.669Z,30.8
